Meteorológiai információk azoknak akik tudják olvasni.

METAR = LHBP 240700Z 30011KT CAVOK 09/M01 Q1022 NOSIG

9 órás TAF = TAF TAF LHBP 182000Z 1820/1821 CNL

24 órás TAF = TAF TAF LHBP 240500Z 2406/2506 25005KT CAVOK BECMG 2406/2409 27010KT TEMPO 2407/2410 SCT045 BECMG 2411/2414 22010KT BECMG 2416/2418 12005KT BECMG 2419/2421 16009KT TEMPO 2421/2503 BKN040

ÁLLOMÁS.................... LHBP
ÉSZLELÉS................... Mon Apr 24, 09:00 CEST
MOST....................... Mon Apr 24, 09:23 CEST
IDŐ........................ 23 perccel ezelőtt
SZÉL....................... NYÉNY irányból 11 csomó
LÁTÁSTÁVOLSÁG.............. 10 km vagy több
FELHŐZET................... jelentős felhőzet nincs
HŐMÉRSÉKLET................ 48°F (9°C)
HŐÉRZET.................... 43°F (6°C)
HARMATPONT................. 30°F (-1°C)
PÁRATARTALOM............... 50%
LÉGNYOMÁS.................. 1022 hPa (30.18 in Hg)

További információ LHBP állomásról

Meteor információ kérése:        állomásról.    

 

www.tothgeza.hu

 

English version
Copyright © 2003-2017 Tóth Géza Minden jog fenntartva.